Flight Track Log - Related Links

Times and Time Zones

All times are in EDT time to prevent confusion due to time zone crossing. See the UAL326 flight status page for this flight to view local times or setup timezone preferences in your user account.

Time Position Orientation Groundspeed Altitude Reporting Facility
EDT Latitude Longitude Course Direction KTS MPH feet Rate Location/Type
Thu 02:14:14 PM 28.4000 -81.3000 139° Southeast 164 189 900  Level Orlando TRACON
Thu 02:15:03 PM 28.3667 -81.2667 139° Southeast 214 246 2,000 2,294 Climbing Orlando TRACON
Thu 02:17:04 PM 28.3197 -81.1525 115° Southeast 200 230 7,400 2,718 Climbing Jacksonville Center
Thu 02:18:04 PM 28.3606 -81.0833 56° Northeast 225 259 10,200 2,350 Climbing Jacksonville Center
Thu 02:19:04 PM 28.4506 -81.1172 342° North 213 245 12,100 2,000 Climbing Jacksonville Center
Thu 02:20:04 PM 28.5472 -81.1581 340° North 291 335 14,200 2,100 Climbing Jacksonville Center
Thu 02:21:04 PM 28.6439 -81.1989 340° North 332 382 16,300 2,000 Climbing Jacksonville Center
Thu 02:22:04 PM 28.7444 -81.2422 339° North 359 413 18,200 1,850 Climbing Jacksonville Center
Thu 02:23:04 PM 28.8453 -81.2831 340° North 377 434 20,000 1,750 Climbing Jacksonville Center
Thu 02:24:04 PM 28.9500 -81.3264 340° North 387 445 21,700 1,600 Climbing Jacksonville Center
Thu 02:25:04 PM 29.0550 -81.3725 339° North 393 452 23,200 1,300 Climbing Jacksonville Center
Thu 02:26:04 PM 29.1661 -81.4017 347° North 398 458 24,300 1,150 Climbing Jacksonville Center
Thu 02:27:04 PM 29.2872 -81.4092 357° North 411 473 25,500 1,300 Climbing Jacksonville Center
Thu 02:28:04 PM 29.4083 -81.4242 354° North 430 495 26,900 1,400 Climbing Jacksonville Center
Thu 02:29:04 PM 29.5317 -81.4342 356° North 430 495 28,300 1,150 Climbing Jacksonville Center
Thu 02:30:04 PM 29.6592 -81.4467 355° North 437 503 29,200 1,100 Climbing Jacksonville Center
Thu 02:31:04 PM 29.7844 -81.4592 355° North 448 516 30,500 1,450 Climbing Jacksonville Center
Thu 02:32:04 PM 29.9078 -81.4669 357° North 448 516 32,100 1,300 Climbing Jacksonville Center
Thu 02:33:04 PM 30.0311 -81.4819 354° North 442 509 33,100 1,000 Climbing Jacksonville Center
Thu 02:34:04 PM 30.1544 -81.4919 356° North 442 509 34,100 950 Climbing Jacksonville Center
Thu 02:35:04 PM 30.2756 -81.5022 356° North 442 509 35,000 450 Climbing Jacksonville Center
Thu 02:36:04 PM 30.4008 -81.5053 359° North 442 509 35,000  Level Jacksonville Center
Thu 02:37:04 PM 30.5242 -81.4964 North 442 509 35,000  Level Jacksonville Center
Thu 02:38:04 PM 30.6450 -81.4872 North 442 509 35,000  Level Jacksonville Center
Thu 02:39:04 PM 30.7703 -81.4758 North 442 509 35,000  Level Jacksonville Center
Thu 02:40:04 PM 30.8828 -81.4692 North 442 509 35,000  Level Jacksonville Center
Thu 02:41:04 PM 31.0081 -81.4600 North 448 516 35,000  Level Jacksonville Center
Thu 02:42:04 PM 31.1331 -81.4411 North 448 516 35,000  Level Jacksonville Center
Thu 02:43:04 PM 31.2494 -81.3836 23° Northeast 442 509 35,000  Level Jacksonville Center
Thu 02:44:04 PM 31.3633 -81.3161 27° Northeast 447 514 35,000  Level Jacksonville Center
Thu 02:45:04 PM 31.4897 -81.2456 25° Northeast 447 514 35,000  Level Jacksonville Center
Thu 02:46:04 PM 31.6058 -81.1800 26° Northeast 453 521 35,000  Level Jacksonville Center
Thu 02:47:04 PM 31.7117 -81.1219 25° Northeast 460 529 35,000  Level Jacksonville Center
Thu 02:48:04 PM 31.8378 -81.0511 26° Northeast 460 529 35,000  Level Jacksonville Center
Thu 02:49:04 PM 31.9456 -80.9903 26° Northeast 461 531 35,000  Level Jacksonville Center
Thu 02:50:04 PM 32.0739 -80.9164 26° Northeast 461 531 35,000  Level Jacksonville Center
Thu 02:51:04 PM 32.1836 -80.8578 24° Northeast 465 535 35,000  Level Jacksonville Center
Thu 02:52:04 PM 32.3097 -80.7883 25° Northeast 465 535 35,000  Level Jacksonville Center
Thu 02:53:04 PM 32.4153 -80.7244 27° Northeast 463 533 35,000  Level Jacksonville Center
Thu 02:54:04 PM 32.5331 -80.6553 26° Northeast 463 533 35,000 -50 Level Jacksonville Center
Thu 02:55:04 PM 32.6508 -80.5906 25° Northeast 463 533 34,900 -50 Descending Jacksonville Center
Thu 02:56:04 PM 32.7767 -80.5158 27° Northeast 463 533 34,900 50 Level Jacksonville Center
Thu 02:57:04 PM 32.8967 -80.4483 25° Northeast 463 533 35,000 50 Climbing Jacksonville Center
Thu 02:58:04 PM 33.0203 -80.3731 27° Northeast 472 543 35,000  Level Jacksonville Center
Thu 02:59:04 PM 33.1317 -80.3103 25° Northeast 465 535 35,000 -50 Level Jacksonville Center
Thu 03:00:04 PM 33.2575 -80.2397 25° Northeast 471 542 34,900  Descending Jacksonville Center
Thu 03:01:04 PM 33.3750 -80.1692 27° Northeast 471 542 35,000 50 Climbing Jacksonville Center
Thu 03:02:04 PM 33.4906 -80.1008 26° Northeast 465 535 35,000 -50 Level Jacksonville Center
Thu 03:03:04 PM 33.6119 -80.0294 26° Northeast 465 535 34,900  Descending Jacksonville Center
Thu 03:04:04 PM 33.7292 -79.9583 27° Northeast 465 535 35,000 50 Climbing Jacksonville Center
Thu 03:05:04 PM 33.8467 -79.8894 26° Northeast 465 535 35,000 -50 Level Jacksonville Center
Thu 03:06:04 PM 33.9658 -79.8153 27° Northeast 465 535 34,900 -50 Descending Jacksonville Center
Thu 03:07:04 PM 34.0853 -79.7483 25° Northeast 465 535 34,900  Level Jacksonville Center
Thu 03:08:04 PM 34.2064 -79.6736 27° Northeast 470 541 34,900 50 Level Jacksonville Center
Thu 03:09:04 PM 34.3114 -79.6169 24° Northeast 470 541 35,000 67 Climbing Jacksonville Center
Thu 03:09:33 PM 34.3828 -79.5806 23° Northeast 468 539 35,000  Level Washington Center
Thu 03:10:50 PM 34.5167 -79.5089 24° Northeast 473 544 35,000  Level Washington Center
Thu 03:11:51 PM 34.6611 -79.4300 24° Northeast 468 539 35,000  Level Washington Center
Thu 03:12:49 PM 34.7800 -79.3647 24° Northeast 468 539 35,000  Level Washington Center
Thu 03:13:50 PM 34.9008 -79.3019 23° Northeast 468 539 35,000  Level Washington Center
Thu 03:14:52 PM 35.0239 -79.2367 23° Northeast 468 539 35,000  Level Washington Center
Thu 03:15:50 PM 35.1450 -79.1683 25° Northeast 468 539 35,000  Level Washington Center
Thu 03:16:50 PM 35.2658 -79.1050 23° Northeast 468 539 35,000  Level Washington Center
Thu 03:17:50 PM 35.3864 -79.0417 23° Northeast 468 539 35,000  Level Washington Center
Thu 03:18:52 PM 35.5072 -78.9753 24° Northeast 468 539 35,000 -450 Level Washington Center
Thu 03:19:50 PM 35.6281 -78.9089 24° Northeast 468 539 34,100 -1,210 Descending Washington Center
Thu 03:20:51 PM 35.7489 -78.8422 24° Northeast 468 539 32,600 -1,426 Descending Washington Center
Thu 03:21:52 PM 35.8717 -78.7731 25° Northeast 468 539 31,200 -1,361 Descending Washington Center
Thu 03:22:50 PM 35.9925 -78.7061 24° Northeast 468 539 29,900 -1,160 Descending Washington Center
Thu 03:23:51 PM 36.1069 -78.6411 25° Northeast 463 533 28,900 -984 Descending Washington Center
Thu 03:24:52 PM 36.2211 -78.5786 24° Northeast 453 521 27,900 -908 Descending Washington Center
Thu 03:25:50 PM 36.3375 -78.5133 24° Northeast 445 512 27,100 -458 Descending Washington Center
Thu 03:26:50 PM 36.4497 -78.4478 25° Northeast 450 518 27,000 -149 Descending Washington Center
Thu 03:27:51 PM 36.5553 -78.3897 24° Northeast 427 491 26,800 -541 Descending Washington Center
Thu 03:28:52 PM 36.6525 -78.3361 24° Northeast 401 461 25,900 -958 Descending Washington Center
Thu 03:29:50 PM 36.7456 -78.2800 26° Northeast 381 438 24,900 -966 Descending Washington Center
Thu 03:30:50 PM 36.8386 -78.2286 24° Northeast 369 425 24,000 -934 Descending Washington Center
Thu 03:31:52 PM 36.9278 -78.2550 347° North 314 361 23,000 -885 Descending Washington Center
Thu 03:32:52 PM 37.0039 -78.2942 338° Northwest 314 361 22,200 -508 Descending Washington Center
Thu 03:33:50 PM 37.0883 -78.3439 335° Northwest 322 371 22,000 -101 Descending Washington Center
Thu 03:34:51 PM 37.1764 -78.3314 North 319 367 22,000  Level Washington Center
Thu 03:35:52 PM 37.2517 -78.2219 49° Northeast 311 358 22,000  Level Washington Center
Thu 03:36:50 PM 37.3164 -78.1275 49° Northeast 322 371 22,000  Level Washington Center
Thu 03:37:51 PM 37.3850 -78.0331 48° Northeast 340 391 22,000  Level Washington Center
Thu 03:38:51 PM 37.4494 -77.9411 49° Northeast 353 406 22,000  Level Washington Center
Thu 03:39:49 PM 37.5158 -77.8486 48° Northeast 358 412 22,000  Level Washington Center
Thu 03:40:50 PM 37.6006 -77.7858 30° Northeast 353 406 22,000  Level Washington Center
Thu 03:41:50 PM 37.6892 -77.7331 25° Northeast 348 400 22,000 -787 Level Washington Center
Thu 03:42:52 PM 37.7775 -77.6806 25° Northeast 343 395 20,400 -2,066 Descending Washington Center
Thu 03:43:52 PM 37.8619 -77.6328 24° Northeast 336 387 17,800 -2,492 Descending Washington Center
Thu 03:44:50 PM 37.9461 -77.5797 26° Northeast 331 381 15,500 -2,200 Descending Washington Center
Thu 03:45:52 PM 38.0119 -77.5025 43° Northeast 331 381 13,400 -1,951 Descending Washington Center
Thu 03:46:53 PM 38.0653 -77.4353 45° Northeast 315 362 11,500 -1,678 Descending Washington Center
Thu 03:47:50 PM 38.1269 -77.3603 44° Northeast 301 346 10,100 -769 Descending Washington Center
Thu 03:48:50 PM 38.2042 -77.3542 North 272 313 10,000 -393 Descending Washington Center
Thu 03:49:52 PM 38.2789 -77.3692 351° North 266 306 9,300 -1,131 Descending Washington Center
Thu 03:50:52 PM 38.3517 -77.3947 345° North 261 300 7,700 -1,220 Descending Washington Center
Thu 03:51:50 PM 38.4242 -77.4203 345° North 261 300 6,900 -508 Descending Washington Center
Thu 03:52:50 PM 38.4967 -77.4433 346° North 261 300 6,700 -893 Descending Washington Center
Thu 03:53:51 PM 38.5694 -77.4636 348° North 261 300 5,100 -991 Descending Washington Center
Thu 03:54:39 PM 38.6500 -77.4667 358° North 273 314 4,900 -611 Descending Potomac TRACON
Thu 03:55:39 PM 38.7167 -77.4667 360° North 258 297 4,000 -793 Descending Potomac TRACON
Thu 03:56:40 PM 38.7833 -77.4667 360° North 215 247 3,300 -843 Descending Potomac TRACON
Thu 03:57:40 PM 38.8333 -77.4667 360° North 194 223 2,300 -900 Descending Potomac TRACON
Thu 03:58:40 PM 38.8833 -77.4667 360° North 146 168 1,500 -800 Descending Potomac TRACON
Thu 03:59:40 PM 38.9167 -77.4667 360° North 140 161 700 -800 Descending Potomac TRACON
Thu 04:01:00 PM 38.9474 -77.4599 North  Level Estimated
Thu 04:08:00 PM 38.9474 -77.4599 195° South  Level Estimated
Thu 04:09:00 PM 38.9474 -77.4599 195° South  Level Estimated
Thu 04:10:00 PM 38.9474 -77.4599 195° South  Level Estimated
Thu 04:11:00 PM 38.9474 -77.4599 195° South  Level Estimated

Login

Don't have an account? Register now (free) for customized features, flight alerts, and more!